KLM993 EHAM-EGLC
Flight info
| Callsign | KLM993 |
|---|---|
| Flight time | 0h 57m |
| Altitude | 20000 |
| Route | IDRID L980 XAMAN |
| Aircraft | E190/M-SDE3GILORVW/S |
Departure
| Time | 2026-04-29 18:15 |
|---|---|
| Airport | Amsterdam Airport Schiphol (EHAM) |
Arrival
| Time | 2026-04-29 19:12 |
|---|---|
| Airport | London City Airport (EGLC) |
| Time | Latitude | Longitude | Altitude | Speed | Heading |
|---|---|---|---|---|---|
| 2026-04-29 17:46 | 52.30254 | 4.76114 | -1 ft | 0 kts | 238° |
| 2026-04-29 17:59 | 52.30256 | 4.76119 | -1 ft | 2 kts | 238° |
| 2026-04-29 17:59 | 52.30264 | 4.76140 | -1 ft | 2 kts | 238° |
| 2026-04-29 18:00 | 52.30269 | 4.76153 | -1 ft | 2 kts | 234° |
| 2026-04-29 18:00 | 52.30280 | 4.76166 | -1 ft | 2 kts | 191° |
| 2026-04-29 18:00 | 52.30295 | 4.76164 | -1 ft | 1 kts | 153° |
| 2026-04-29 18:00 | 52.30299 | 4.76160 | -1 ft | 0 kts | 148° |
| 2026-04-29 18:03 | 52.30298 | 4.76161 | -1 ft | 0 kts | 148° |
| 2026-04-29 18:03 | 52.30294 | 4.76165 | -1 ft | 1 kts | 149° |
| 2026-04-29 18:03 | 52.30284 | 4.76175 | -1 ft | 2 kts | 149° |
| 2026-04-29 18:04 | 52.30268 | 4.76191 | -1 ft | 3 kts | 146° |
| 2026-04-29 18:04 | 52.30241 | 4.76221 | -1 ft | 5 kts | 145° |
| 2026-04-29 18:04 | 52.30196 | 4.76239 | -1 ft | 8 kts | 197° |
| 2026-04-29 18:04 | 52.30153 | 4.76148 | -1 ft | 12 kts | 240° |
| 2026-04-29 18:05 | 52.30097 | 4.76004 | -1 ft | 17 kts | 237° |
| 2026-04-29 18:05 | 52.30020 | 4.75804 | -1 ft | 23 kts | 236° |
| 2026-04-29 18:05 | 52.29926 | 4.75558 | -1 ft | 26 kts | 238° |
| 2026-04-29 18:05 | 52.29837 | 4.75318 | -1 ft | 20 kts | 251° |
| 2026-04-29 18:06 | 52.29888 | 4.75106 | -1 ft | 22 kts | 313° |
| 2026-04-29 18:06 | 52.29994 | 4.74911 | -1 ft | 23 kts | 311° |
| 2026-04-29 18:06 | 52.30103 | 4.74701 | -1 ft | 25 kts | 307° |
| 2026-04-29 18:06 | 52.30225 | 4.74482 | -1 ft | 27 kts | 312° |
| 2026-04-29 18:07 | 52.30342 | 4.74265 | -1 ft | 21 kts | 314° |
| 2026-04-29 18:07 | 52.30477 | 4.74195 | -1 ft | 21 kts | 4° |
| 2026-04-29 18:07 | 52.30627 | 4.74208 | -1 ft | 22 kts | 3° |
| 2026-04-29 18:07 | 52.30782 | 4.74221 | -1 ft | 22 kts | 4° |
| 2026-04-29 18:08 | 52.30941 | 4.74236 | -1 ft | 23 kts | 4° |
| 2026-04-29 18:08 | 52.31085 | 4.74249 | -1 ft | 21 kts | 3° |
| 2026-04-29 18:08 | 52.31214 | 4.74263 | -1 ft | 12 kts | 3° |
| 2026-04-29 18:08 | 52.31301 | 4.74269 | -1 ft | 10 kts | 2° |
| 2026-04-29 18:09 | 52.31316 | 4.74270 | -1 ft | 0 kts | 4° |
| 2026-04-29 18:09 | 52.31335 | 4.74274 | -1 ft | 5 kts | 10° |
| 2026-04-29 18:09 | 52.31388 | 4.74320 | -1 ft | 12 kts | 71° |
| 2026-04-29 18:09 | 52.31394 | 4.74457 | -1 ft | 0 kts | 88° |
| 2026-04-29 18:10 | 52.31394 | 4.74461 | -1 ft | 1 kts | 88° |
| 2026-04-29 18:11 | 52.31395 | 4.74508 | -1 ft | 6 kts | 89° |
| 2026-04-29 18:11 | 52.31415 | 4.74648 | -1 ft | 17 kts | 41° |
| 2026-04-29 18:11 | 52.31500 | 4.74667 | -1 ft | 10 kts | 354° |
| 2026-04-29 18:11 | 52.31560 | 4.74659 | -1 ft | 0 kts | 356° |
| 2026-04-29 18:12 | 52.31562 | 4.74658 | -1 ft | 1 kts | 357° |
| 2026-04-29 18:13 | 52.31589 | 4.74657 | -1 ft | 8 kts | 0° |
| 2026-04-29 18:13 | 52.31663 | 4.74733 | -1 ft | 17 kts | 73° |
| 2026-04-29 18:13 | 52.31667 | 4.74763 | -1 ft | 0 kts | 84° |
| 2026-04-29 18:13 | 52.31667 | 4.74764 | -1 ft | 0 kts | 84° |
| 2026-04-29 18:14 | 52.31667 | 4.74774 | -1 ft | 7 kts | 84° |
| 2026-04-29 18:14 | 52.31688 | 4.75303 | -1 ft | 84 kts | 88° |
| 2026-04-29 18:14 | 52.31731 | 4.76615 | 0 ft | 143 kts | 88° |
| 2026-04-29 18:14 | 52.31784 | 4.78226 | 414 ft | 139 kts | 88° |
| 2026-04-29 18:15 | 52.32037 | 4.79732 | 796 ft | 138 kts | 59° |
| 2026-04-29 18:15 | 52.32722 | 4.80762 | 889 ft | 142 kts | 34° |
| 2026-04-29 18:15 | 52.33774 | 4.81074 | 1471 ft | 173 kts | 1° |
| 2026-04-29 18:15 | 52.35025 | 4.80482 | 2050 ft | 204 kts | 352° |
| 2026-04-29 18:16 | 52.36469 | 4.79863 | 2727 ft | 224 kts | 355° |
| 2026-04-29 18:16 | 52.38031 | 4.79346 | 3523 ft | 242 kts | 352° |
| 2026-04-29 18:16 | 52.39537 | 4.77830 | 4386 ft | 271 kts | 320° |
| 2026-04-29 18:16 | 52.40871 | 4.75585 | 5308 ft | 285 kts | 319° |
| 2026-04-29 18:17 | 52.42031 | 4.72940 | 6367 ft | 298 kts | 292° |
| 2026-04-29 18:17 | 52.42221 | 4.69598 | 7451 ft | 305 kts | 259° |
| 2026-04-29 18:17 | 52.41338 | 4.66533 | 8529 ft | 304 kts | 230° |
| 2026-04-29 18:17 | 52.39982 | 4.63903 | 9623 ft | 306 kts | 228° |
| 2026-04-29 18:18 | 52.38600 | 4.61264 | 10489 ft | 312 kts | 227° |
| 2026-04-29 18:18 | 52.37263 | 4.58417 | 11327 ft | 322 kts | 239° |
| 2026-04-29 18:18 | 52.36358 | 4.55040 | 12036 ft | 335 kts | 253° |
| 2026-04-29 18:18 | 52.35683 | 4.51332 | 12646 ft | 348 kts | 250° |
| 2026-04-29 18:19 | 52.34356 | 4.48017 | 13358 ft | 356 kts | 221° |
| 2026-04-29 18:19 | 52.32335 | 4.45713 | 14222 ft | 359 kts | 210° |
| 2026-04-29 18:19 | 52.30213 | 4.43553 | 15148 ft | 361 kts | 210° |
| 2026-04-29 18:19 | 52.28089 | 4.41387 | 15968 ft | 364 kts | 212° |
| 2026-04-29 18:20 | 52.26197 | 4.38637 | 16802 ft | 371 kts | 230° |
| 2026-04-29 18:20 | 52.24710 | 4.35204 | 17631 ft | 375 kts | 238° |
| 2026-04-29 18:20 | 52.23381 | 4.31548 | 18420 ft | 379 kts | 239° |
| 2026-04-29 18:20 | 52.22099 | 4.27783 | 19222 ft | 383 kts | 240° |
| 2026-04-29 18:21 | 52.20837 | 4.23995 | 19948 ft | 387 kts | 240° |
| 2026-04-29 18:21 | 52.19566 | 4.20153 | 20283 ft | 386 kts | 240° |
| 2026-04-29 18:21 | 52.18262 | 4.16206 | 20356 ft | 409 kts | 240° |
| 2026-04-29 18:21 | 52.16885 | 4.12038 | 20324 ft | 417 kts | 241° |
| 2026-04-29 18:22 | 52.15508 | 4.07877 | 20326 ft | 415 kts | 240° |
| 2026-04-29 18:22 | 52.14141 | 4.03752 | 20326 ft | 416 kts | 240° |
| 2026-04-29 18:22 | 52.12781 | 3.99658 | 20331 ft | 417 kts | 241° |
| 2026-04-29 18:22 | 52.11413 | 3.95545 | 20329 ft | 417 kts | 240° |
| 2026-04-29 18:23 | 52.10039 | 3.91419 | 20323 ft | 416 kts | 240° |
| 2026-04-29 18:23 | 52.08661 | 3.87291 | 20326 ft | 415 kts | 240° |
| 2026-04-29 18:23 | 52.07266 | 3.83117 | 20319 ft | 415 kts | 240° |
| 2026-04-29 18:23 | 52.05907 | 3.79056 | 20305 ft | 414 kts | 240° |
| 2026-04-29 18:24 | 52.04517 | 3.74912 | 20310 ft | 413 kts | 240° |
| 2026-04-29 18:24 | 52.03149 | 3.70842 | 20312 ft | 414 kts | 240° |
| 2026-04-29 18:24 | 52.01767 | 3.66735 | 20304 ft | 414 kts | 240° |
| 2026-04-29 18:24 | 52.00395 | 3.62664 | 20301 ft | 414 kts | 240° |
| 2026-04-29 18:25 | 51.99014 | 3.58573 | 20316 ft | 414 kts | 240° |
| 2026-04-29 18:25 | 51.97619 | 3.54447 | 20310 ft | 415 kts | 240° |
| 2026-04-29 18:25 | 51.96236 | 3.50361 | 20311 ft | 413 kts | 240° |
| 2026-04-29 18:25 | 51.94868 | 3.46330 | 20308 ft | 413 kts | 240° |
| 2026-04-29 18:26 | 51.93476 | 3.42232 | 20311 ft | 414 kts | 240° |
| 2026-04-29 18:26 | 51.92086 | 3.38151 | 20306 ft | 413 kts | 240° |
| 2026-04-29 18:26 | 51.90710 | 3.34115 | 20303 ft | 413 kts | 239° |
| 2026-04-29 18:26 | 51.89315 | 3.30027 | 20302 ft | 412 kts | 239° |
| 2026-04-29 18:27 | 51.87929 | 3.25977 | 20300 ft | 412 kts | 239° |
| 2026-04-29 18:27 | 51.86546 | 3.21940 | 20292 ft | 411 kts | 239° |
| 2026-04-29 18:27 | 51.85322 | 3.17707 | 20291 ft | 412 kts | 250° |
| 2026-04-29 18:27 | 51.84592 | 3.13219 | 20303 ft | 414 kts | 260° |
| 2026-04-29 18:28 | 51.84307 | 3.08592 | 20302 ft | 414 kts | 265° |
| 2026-04-29 18:28 | 51.84051 | 3.04030 | 20287 ft | 413 kts | 264° |
| 2026-04-29 18:28 | 51.83760 | 2.99363 | 20288 ft | 415 kts | 264° |
| 2026-04-29 18:28 | 51.83461 | 2.94748 | 20285 ft | 415 kts | 264° |
| 2026-04-29 18:29 | 51.83160 | 2.90170 | 20285 ft | 414 kts | 264° |
| 2026-04-29 18:29 | 51.82851 | 2.85515 | 20285 ft | 414 kts | 264° |
| 2026-04-29 18:29 | 51.82545 | 2.80926 | 20284 ft | 413 kts | 264° |
| 2026-04-29 18:29 | 51.82236 | 2.76330 | 20283 ft | 413 kts | 264° |
| 2026-04-29 18:30 | 51.81925 | 2.71720 | 20288 ft | 414 kts | 264° |
| 2026-04-29 18:30 | 51.81619 | 2.67218 | 20276 ft | 402 kts | 264° |
| 2026-04-29 18:30 | 51.81313 | 2.62759 | 20268 ft | 398 kts | 264° |
| 2026-04-29 18:30 | 51.81007 | 2.58330 | 20268 ft | 399 kts | 264° |
| 2026-04-29 18:31 | 51.80695 | 2.53834 | 20219 ft | 402 kts | 263° |
| 2026-04-29 18:31 | 51.80383 | 2.49358 | 19801 ft | 401 kts | 264° |
| 2026-04-29 18:31 | 51.80072 | 2.44931 | 19362 ft | 397 kts | 264° |
| 2026-04-29 18:31 | 51.79763 | 2.40548 | 18934 ft | 394 kts | 264° |
| 2026-04-29 18:32 | 51.79455 | 2.36205 | 18503 ft | 390 kts | 264° |
| 2026-04-29 18:32 | 51.78832 | 2.27501 | 17643 ft | 386 kts | 263° |
| 2026-04-29 18:32 | 51.78522 | 2.23206 | 17215 ft | 385 kts | 263° |
| 2026-04-29 18:33 | 51.78258 | 2.18914 | 16798 ft | 382 kts | 264° |
| 2026-04-29 18:33 | 51.78011 | 2.14638 | 16377 ft | 381 kts | 264° |
| 2026-04-29 18:33 | 51.77764 | 2.10421 | 15962 ft | 379 kts | 264° |
| 2026-04-29 18:33 | 51.77515 | 2.06189 | 15536 ft | 377 kts | 264° |
| 2026-04-29 18:34 | 51.77264 | 2.01980 | 15115 ft | 377 kts | 264° |
| 2026-04-29 18:34 | 51.77097 | 1.99180 | 14836 ft | 375 kts | 264° |
| 2026-04-29 18:34 | 51.76764 | 1.93647 | 14288 ft | 373 kts | 264° |
| 2026-04-29 18:34 | 51.76515 | 1.89523 | 13874 ft | 362 kts | 264° |
| 2026-04-29 18:35 | 51.76273 | 1.85555 | 13486 ft | 352 kts | 264° |
| 2026-04-29 18:35 | 51.76037 | 1.81694 | 13101 ft | 342 kts | 264° |
| 2026-04-29 18:35 | 51.75804 | 1.77915 | 12731 ft | 334 kts | 264° |
| 2026-04-29 18:35 | 51.75578 | 1.74266 | 12362 ft | 326 kts | 264° |
| 2026-04-29 18:36 | 51.75354 | 1.70651 | 12010 ft | 322 kts | 263° |
| 2026-04-29 18:36 | 51.75132 | 1.67102 | 11664 ft | 321 kts | 263° |
| 2026-04-29 18:36 | 51.74907 | 1.63533 | 11314 ft | 322 kts | 264° |
| 2026-04-29 18:36 | 51.74680 | 1.59929 | 10961 ft | 319 kts | 264° |
| 2026-04-29 18:37 | 51.74456 | 1.56407 | 10602 ft | 312 kts | 263° |
| 2026-04-29 18:37 | 51.74236 | 1.52959 | 10266 ft | 305 kts | 263° |
| 2026-04-29 18:37 | 51.74010 | 1.49605 | 9930 ft | 298 kts | 259° |
| 2026-04-29 18:37 | 51.73449 | 1.46485 | 9612 ft | 289 kts | 243° |
| 2026-04-29 18:38 | 51.72435 | 1.43783 | 9344 ft | 275 kts | 226° |
| 2026-04-29 18:38 | 51.71119 | 1.41692 | 9280 ft | 254 kts | 211° |
| 2026-04-29 18:38 | 51.69665 | 1.40245 | 9269 ft | 247 kts | 203° |
| 2026-04-29 18:38 | 51.68149 | 1.38968 | 9277 ft | 246 kts | 201° |
| 2026-04-29 18:39 | 51.66593 | 1.37751 | 9274 ft | 247 kts | 200° |
| 2026-04-29 18:39 | 51.65045 | 1.36590 | 9274 ft | 248 kts | 199° |
| 2026-04-29 18:39 | 51.63472 | 1.35436 | 9268 ft | 248 kts | 199° |
| 2026-04-29 18:39 | 51.61897 | 1.34294 | 9256 ft | 247 kts | 198° |
| 2026-04-29 18:40 | 51.60323 | 1.33183 | 9253 ft | 246 kts | 193° |
| 2026-04-29 18:40 | 51.58663 | 1.32646 | 9264 ft | 237 kts | 174° |
| 2026-04-29 18:40 | 51.57063 | 1.32936 | 9272 ft | 231 kts | 160° |
| 2026-04-29 18:40 | 51.55499 | 1.33584 | 9257 ft | 231 kts | 159° |
| 2026-04-29 18:41 | 51.50853 | 1.35548 | 9244 ft | 231 kts | 161° |
| 2026-04-29 18:41 | 51.49236 | 1.35754 | 9252 ft | 238 kts | 177° |
| 2026-04-29 18:42 | 51.47568 | 1.35561 | 9252 ft | 239 kts | 177° |
| 2026-04-29 18:42 | 51.45933 | 1.35119 | 9256 ft | 244 kts | 192° |
| 2026-04-29 18:42 | 51.44400 | 1.33877 | 9259 ft | 253 kts | 211° |
| 2026-04-29 18:42 | 51.43123 | 1.31900 | 9262 ft | 259 kts | 229° |
| 2026-04-29 18:43 | 51.42235 | 1.29343 | 9268 ft | 264 kts | 247° |
| 2026-04-29 18:43 | 51.41839 | 1.26468 | 9288 ft | 266 kts | 265° |
| 2026-04-29 18:43 | 51.41962 | 1.23551 | 9307 ft | 268 kts | 283° |
| 2026-04-29 18:43 | 51.42577 | 1.20720 | 9146 ft | 269 kts | 295° |
| 2026-04-29 18:44 | 51.43344 | 1.18005 | 8873 ft | 267 kts | 296° |
| 2026-04-29 18:44 | 51.44105 | 1.15313 | 8575 ft | 265 kts | 296° |
| 2026-04-29 18:44 | 51.44864 | 1.12627 | 8298 ft | 262 kts | 296° |
| 2026-04-29 18:44 | 51.45604 | 1.10002 | 8023 ft | 261 kts | 296° |
| 2026-04-29 18:45 | 51.46354 | 1.07337 | 7751 ft | 260 kts | 296° |
| 2026-04-29 18:45 | 51.47084 | 1.04690 | 7470 ft | 260 kts | 291° |
| 2026-04-29 18:45 | 51.47520 | 1.01867 | 7205 ft | 260 kts | 277° |
| 2026-04-29 18:45 | 51.47631 | 0.98997 | 6921 ft | 260 kts | 270° |
| 2026-04-29 18:46 | 51.47591 | 0.96135 | 6628 ft | 258 kts | 266° |
| 2026-04-29 18:46 | 51.47478 | 0.93246 | 6340 ft | 257 kts | 265° |
| 2026-04-29 18:46 | 51.47496 | 0.90413 | 6199 ft | 253 kts | 274° |
| 2026-04-29 18:46 | 51.47626 | 0.87612 | 6243 ft | 256 kts | 274° |
| 2026-04-29 18:47 | 51.47745 | 0.84772 | 6244 ft | 257 kts | 274° |
| 2026-04-29 18:47 | 51.47861 | 0.81873 | 6246 ft | 257 kts | 274° |
| 2026-04-29 18:47 | 51.47973 | 0.79008 | 6248 ft | 258 kts | 274° |
| 2026-04-29 18:47 | 51.48082 | 0.76132 | 6250 ft | 259 kts | 273° |
| 2026-04-29 18:48 | 51.48189 | 0.73289 | 6252 ft | 258 kts | 273° |
| 2026-04-29 18:48 | 51.48297 | 0.70399 | 6255 ft | 258 kts | 273° |
| 2026-04-29 18:48 | 51.48402 | 0.67548 | 6205 ft | 259 kts | 273° |
| 2026-04-29 18:48 | 51.48508 | 0.64669 | 5973 ft | 260 kts | 273° |
| 2026-04-29 18:49 | 51.48614 | 0.61779 | 5702 ft | 259 kts | 273° |
| 2026-04-29 18:49 | 51.48718 | 0.58895 | 5418 ft | 258 kts | 273° |
| 2026-04-29 18:49 | 51.48822 | 0.56009 | 5126 ft | 258 kts | 273° |
| 2026-04-29 18:49 | 51.48923 | 0.53179 | 4858 ft | 258 kts | 273° |
| 2026-04-29 18:50 | 51.49025 | 0.50306 | 4568 ft | 258 kts | 273° |
| 2026-04-29 18:50 | 51.48949 | 0.47451 | 4285 ft | 255 kts | 256° |
| 2026-04-29 18:50 | 51.48371 | 0.44835 | 4213 ft | 246 kts | 236° |
| 2026-04-29 18:50 | 51.47514 | 0.42452 | 4236 ft | 247 kts | 235° |
| 2026-04-29 18:51 | 51.46641 | 0.40063 | 4231 ft | 249 kts | 235° |
| 2026-04-29 18:51 | 51.45773 | 0.37692 | 4048 ft | 250 kts | 234° |
| 2026-04-29 18:51 | 51.44890 | 0.35284 | 3795 ft | 249 kts | 234° |
| 2026-04-29 18:51 | 51.44014 | 0.32898 | 3519 ft | 248 kts | 233° |
| 2026-04-29 18:52 | 51.43305 | 0.30357 | 3238 ft | 252 kts | 251° |
| 2026-04-29 18:52 | 51.43112 | 0.27603 | 3202 ft | 240 kts | 271° |
| 2026-04-29 18:52 | 51.43204 | 0.25026 | 3199 ft | 229 kts | 272° |
| 2026-04-29 18:52 | 51.43294 | 0.22489 | 3217 ft | 228 kts | 272° |
| 2026-04-29 18:53 | 51.43380 | 0.19956 | 3233 ft | 230 kts | 272° |
| 2026-04-29 18:53 | 51.43465 | 0.17402 | 3233 ft | 231 kts | 271° |
| 2026-04-29 18:53 | 51.43550 | 0.14830 | 3135 ft | 233 kts | 272° |
| 2026-04-29 18:53 | 51.43635 | 0.12231 | 2922 ft | 233 kts | 272° |
| 2026-04-29 18:54 | 51.43719 | 0.09626 | 2610 ft | 236 kts | 272° |
| 2026-04-29 18:54 | 51.43804 | 0.06990 | 2250 ft | 238 kts | 273° |
| 2026-04-29 18:54 | 51.43887 | 0.04358 | 2013 ft | 231 kts | 274° |
| 2026-04-29 18:54 | 51.43966 | 0.01873 | 1971 ft | 218 kts | 274° |
| 2026-04-29 18:55 | 51.44043 | -0.00575 | 1970 ft | 220 kts | 274° |
| 2026-04-29 18:55 | 51.44117 | -0.02949 | 1961 ft | 206 kts | 274° |
| 2026-04-29 18:55 | 51.44186 | -0.05203 | 1970 ft | 201 kts | 274° |
| 2026-04-29 18:55 | 51.44370 | -0.07399 | 1968 ft | 199 kts | 293° |
| 2026-04-29 18:56 | 51.45011 | -0.09291 | 1994 ft | 191 kts | 320° |
| 2026-04-29 18:56 | 51.46005 | -0.10591 | 1980 ft | 176 kts | 345° |
| 2026-04-29 18:56 | 51.47127 | -0.11209 | 1998 ft | 170 kts | 357° |
| 2026-04-29 18:56 | 51.48260 | -0.11709 | 1990 ft | 170 kts | 357° |
| 2026-04-29 18:57 | 51.49387 | -0.11862 | 1993 ft | 152 kts | 22° |
| 2026-04-29 18:57 | 51.50301 | -0.11246 | 2002 ft | 139 kts | 49° |
| 2026-04-29 18:57 | 51.50870 | -0.10071 | 2001 ft | 131 kts | 66° |
| 2026-04-29 18:57 | 51.51233 | -0.08798 | 2069 ft | 117 kts | 83° |
| 2026-04-29 18:58 | 51.51119 | -0.07498 | 2140 ft | 116 kts | 105° |
| 2026-04-29 18:58 | 51.50940 | -0.06243 | 2159 ft | 116 kts | 95° |
| 2026-04-29 18:58 | 51.50859 | -0.04937 | 2154 ft | 116 kts | 93° |
| 2026-04-29 18:58 | 51.50810 | -0.03654 | 1830 ft | 111 kts | 91° |
| 2026-04-29 18:59 | 51.50773 | -0.02476 | 1554 ft | 100 kts | 91° |
| 2026-04-29 18:59 | 51.50740 | -0.01445 | 1332 ft | 89 kts | 91° |
| 2026-04-29 18:59 | 51.50709 | -0.00421 | 1115 ft | 93 kts | 90° |
| 2026-04-29 18:59 | 51.50674 | 0.00671 | 906 ft | 97 kts | 90° |
| 2026-04-29 19:00 | 51.50626 | 0.01787 | 665 ft | 108 kts | 91° |
| 2026-04-29 19:00 | 51.50589 | 0.03014 | 378 ft | 110 kts | 87° |
| 2026-04-29 19:00 | 51.50557 | 0.04275 | 88 ft | 116 kts | 90° |
| 2026-04-29 19:00 | 51.50528 | 0.05556 | 216 ft | 117 kts | 89° |
| 2026-04-29 19:01 | 51.50476 | 0.06878 | 822 ft | 124 kts | 92° |
| 2026-04-29 19:01 | 51.50379 | 0.08244 | 1544 ft | 128 kts | 94° |
| 2026-04-29 19:01 | 51.50290 | 0.09699 | 2014 ft | 148 kts | 94° |
| 2026-04-29 19:01 | 51.50211 | 0.11342 | 1906 ft | 144 kts | 93° |
| 2026-04-29 19:02 | 51.50137 | 0.12837 | 1942 ft | 122 kts | 94° |
| 2026-04-29 19:02 | 51.50060 | 0.14323 | 2054 ft | 150 kts | 94° |
| 2026-04-29 19:02 | 51.49979 | 0.16031 | 2019 ft | 156 kts | 93° |
| 2026-04-29 19:02 | 51.49889 | 0.17784 | 1983 ft | 156 kts | 94° |
| 2026-04-29 19:03 | 51.49797 | 0.19514 | 1985 ft | 158 kts | 92° |
| 2026-04-29 19:03 | 51.49726 | 0.21269 | 1994 ft | 159 kts | 92° |
| 2026-04-29 19:03 | 51.49716 | 0.23019 | 1985 ft | 157 kts | 76° |
| 2026-04-29 19:03 | 51.50458 | 0.24328 | 2003 ft | 180 kts | 31° |
| 2026-04-29 19:04 | 51.51765 | 0.24310 | 2013 ft | 204 kts | 346° |
| 2026-04-29 19:04 | 51.52837 | 0.22735 | 2017 ft | 224 kts | 302° |
| 2026-04-29 19:04 | 51.53159 | 0.20234 | 2025 ft | 231 kts | 272° |
| 2026-04-29 19:04 | 51.53128 | 0.17661 | 1986 ft | 231 kts | 254° |
| 2026-04-29 19:05 | 51.52667 | 0.15237 | 2011 ft | 229 kts | 248° |
| 2026-04-29 19:05 | 51.52158 | 0.12791 | 2004 ft | 229 kts | 248° |
| 2026-04-29 19:05 | 51.51659 | 0.10368 | 2003 ft | 229 kts | 248° |
| 2026-04-29 19:05 | 51.51168 | 0.07984 | 2015 ft | 223 kts | 248° |
| 2026-04-29 19:06 | 51.50768 | 0.05574 | 1988 ft | 219 kts | 266° |
| 2026-04-29 19:06 | 51.51105 | 0.03257 | 2003 ft | 216 kts | 303° |
| 2026-04-29 19:06 | 51.52590 | -0.00949 | 1994 ft | 217 kts | 306° |
| 2026-04-29 19:07 | 51.53332 | -0.03031 | 1998 ft | 214 kts | 305° |
| 2026-04-29 19:07 | 51.53827 | -0.04419 | 1995 ft | 214 kts | 306° |
| 2026-04-29 19:07 | 51.54691 | -0.07290 | 1979 ft | 220 kts | 282° |
| 2026-04-29 19:07 | 51.54465 | -0.09670 | 2054 ft | 211 kts | 237° |
| 2026-04-29 19:08 | 51.53471 | -0.11231 | 1998 ft | 188 kts | 193° |
| 2026-04-29 19:08 | 51.52300 | -0.11380 | 1995 ft | 159 kts | 154° |
| 2026-04-29 19:08 | 51.51334 | -0.10795 | 1974 ft | 139 kts | 131° |
| 2026-04-29 19:08 | 51.50952 | -0.09543 | 1995 ft | 126 kts | 92° |
| 2026-04-29 19:09 | 51.50934 | -0.08115 | 2005 ft | 128 kts | 91° |
| 2026-04-29 19:09 | 51.50899 | -0.06709 | 1991 ft | 127 kts | 91° |
| 2026-04-29 19:09 | 51.50859 | -0.05291 | 1992 ft | 127 kts | 92° |
| 2026-04-29 19:09 | 51.50816 | -0.03884 | 1907 ft | 130 kts | 92° |
| 2026-04-29 19:10 | 51.50772 | -0.02467 | 1580 ft | 125 kts | 91° |
| 2026-04-29 19:10 | 51.50732 | -0.01186 | 1276 ft | 106 kts | 91° |
| 2026-04-29 19:10 | 51.50697 | -0.00039 | 1029 ft | 102 kts | 91° |
| 2026-04-29 19:10 | 51.50659 | 0.01103 | 789 ft | 105 kts | 91° |
| 2026-04-29 19:11 | 51.50615 | 0.02300 | 498 ft | 110 kts | 90° |
| 2026-04-29 19:11 | 51.50574 | 0.03536 | 247 ft | 112 kts | 90° |
| 2026-04-29 19:11 | 51.50545 | 0.04796 | 40 ft | 112 kts | 93° |
| 2026-04-29 19:11 | 51.50514 | 0.05836 | 27 ft | 67 kts | 91° |
| 2026-04-29 19:12 | 51.50499 | 0.06268 | 27 ft | 20 kts | 98° |
| 2026-04-29 19:12 | 51.50422 | 0.06322 | 27 ft | 12 kts | 237° |
| 2026-04-29 19:12 | 51.50419 | 0.06186 | 27 ft | 12 kts | 271° |
| 2026-04-29 19:12 | 51.50421 | 0.06097 | 27 ft | 12 kts | 274° |
| 2026-04-29 19:13 | 51.50427 | 0.05907 | 27 ft | 13 kts | 272° |
| 2026-04-29 19:13 | 51.50432 | 0.05754 | 27 ft | 13 kts | 272° |
| 2026-04-29 19:13 | 51.50436 | 0.05595 | 27 ft | 14 kts | 272° |
| 2026-04-29 19:13 | 51.50442 | 0.05430 | 27 ft | 15 kts | 275° |
| 2026-04-29 19:14 | 51.50447 | 0.05257 | 27 ft | 15 kts | 272° |
| 2026-04-29 19:14 | 51.50454 | 0.05077 | 27 ft | 16 kts | 276° |
| 2026-04-29 19:14 | 51.50466 | 0.04906 | 27 ft | 12 kts | 273° |
| 2026-04-29 19:14 | 51.50451 | 0.04844 | 27 ft | 5 kts | 198° |
| 2026-04-29 19:15 | 51.50438 | 0.04825 | 27 ft | 1 kts | 285° |
| 2026-04-29 19:15 | 51.50440 | 0.04822 | 27 ft | 0 kts | 307° |